Time;durP1;ratioP1;P1;durP2;ratioP2;P2;SDS_P1;SDS_P2;PMS_P1;PMS_P2;Temp;Humidity;BMP_temperature;BMP_pressure;BME280_temperature;BME280_humidity;BME280_pressure;Samples;Min_cycle;Max_cycle;Signal;HPM_P1;HPM_P2
2021/07/04 00:00:35;;;;;;;8.00;6.38;;;;;;;17.99;74.59;99558.75;4955732;28;20476;-63
2021/07/04 00:03:01;;;;;;;9.05;6.07;;;;;;;17.98;74.58;99551.78;4938450;29;20047;-63
2021/07/04 00:05:41;;;;;;;9.23;6.47;;;;;;;17.98;74.69;99550.94;4939004;29;20047;-64
2021/07/04 00:08:09;;;;;;;8.70;6.75;;;;;;;17.98;74.70;99549.16;4954747;29;20035;-64
2021/07/04 00:10:38;;;;;;;7.05;6.15;;;;;;;17.98;74.55;99556.19;4954588;29;20035;-64
2021/07/04 00:13:04;;;;;;;8.32;7.13;;;;;;;17.97;74.59;99544.78;4938423;29;20046;-65
2021/07/04 00:15:34;;;;;;;7.85;6.50;;;;;;;17.97;74.53;99542.16;4954720;29;20551;-64
2021/07/04 00:18:00;;;;;;;8.57;6.45;;;;;;;17.98;74.60;99543.06;4955506;28;20083;-65
2021/07/04 00:20:26;;;;;;;10.05;6.32;;;;;;;17.96;74.43;99545.69;4938356;29;20535;-65
2021/07/04 00:22:54;;;;;;;7.68;6.55;;;;;;;17.96;74.46;99546.56;4955718;29;20031;-65
2021/07/04 00:25:22;;;;;;;8.10;6.85;;;;;;;17.94;74.71;99540.47;4955671;28;20070;-65
2021/07/04 00:27:48;;;;;;;6.63;5.75;;;;;;;17.96;74.61;99537.81;4938198;29;20110;-65
2021/07/04 00:30:15;;;;;;;11.88;6.78;;;;;;;17.98;74.60;99535.22;4955833;28;20431;-65
2021/07/04 00:32:41;;;;;;;9.63;7.13;;;;;;;17.98;74.80;99528.19;4955483;28;20035;-65
2021/07/04 00:35:09;;;;;;;9.07;7.05;;;;;;;17.96;74.55;99530.84;4955494;28;20487;-65
2021/07/04 00:37:35;;;;;;;9.75;6.63;;;;;;;17.96;74.61;99530.84;4955548;28;20043;-65
2021/07/04 00:40:04;;;;;;;7.80;6.07;;;;;;;17.97;74.15;99529.06;4955711;28;20042;-65
2021/07/04 00:42:29;;;;;;;8.52;6.45;;;;;;;17.95;74.67;99513.38;4955171;28;20085;-66
2021/07/04 00:44:55;;;;;;;10.85;7.70;;;;;;;17.97;74.51;99523.81;4955719;28;20039;-65
2021/07/04 00:47:20;;;;;;;7.55;6.55;;;;;;;17.96;74.61;99522.09;4955370;29;20126;-65
2021/07/04 00:49:49;;;;;;;7.18;6.47;;;;;;;17.95;74.42;99513.38;4938424;29;20410;-65
2021/07/04 00:52:15;;;;;;;8.13;6.47;;;;;;;17.96;74.34;99509.88;4955390;28;20043;-66
2021/07/04 00:54:41;;;;;;;10.15;7.63;;;;;;;17.95;74.76;99513.38;4955382;28;20039;-65
2021/07/04 00:57:07;;;;;;;9.68;7.72;;;;;;;17.97;74.65;99505.47;4955061;28;20417;-65
2021/07/04 00:59:35;;;;;;;10.98;7.43;;;;;;;17.99;74.62;99510.69;4955335;28;20051;-65
2021/07/04 01:02:01;;;;;;;8.45;6.72;;;;;;;17.96;74.73;99509.88;4955380;28;20051;-65
2021/07/04 01:04:27;;;;;;;13.05;7.70;;;;;;;17.96;74.46;99509.88;4954186;29;20031;-65
2021/07/04 01:06:54;;;;;;;9.90;7.22;;;;;;;17.96;74.75;99509.88;4938212;29;20046;-65
2021/07/04 01:09:24;;;;;;;10.43;7.60;;;;;;;17.94;74.73;99509.03;4955054;28;20039;-65
2021/07/04 01:11:50;;;;;;;16.60;7.60;;;;;;;17.96;74.76;99508.97;4954958;28;20563;-65
2021/07/04 01:14:16;;;;;;;9.63;7.53;;;;;;;17.95;74.75;99508.13;4955186;28;20118;-65
2021/07/04 01:16:45;;;;;;;9.55;7.78;;;;;;;17.96;74.78;99503.75;4955201;28;20443;-65
2021/07/04 01:19:16;;;;;;;13.80;8.25;;;;;;;17.95;74.52;99504.63;4937949;29;20134;-65
2021/07/04 01:21:43;;;;;;;10.25;7.53;;;;;;;17.95;74.73;99509.88;4955162;28;20036;-65
2021/07/04 01:24:09;;;;;;;10.90;8.10;;;;;;;17.95;75.00;99509.88;4953603;28;20093;-65
2021/07/04 01:26:35;;;;;;;10.25;7.00;;;;;;;17.95;74.67;99516.00;4937929;29;20138;-65
2021/07/04 01:29:01;;;;;;;12.15;8.48;;;;;;;17.94;74.78;99516.00;4937869;29;20562;-65
2021/07/04 01:31:27;;;;;;;11.68;7.75;;;;;;;17.94;74.85;99505.53;4953922;28;20047;-65
2021/07/04 01:33:52;;;;;;;15.27;8.98;;;;;;;17.94;74.65;99510.78;4954691;28;20027;-65
2021/07/04 01:36:20;;;;;;;11.43;7.53;;;;;;;17.94;74.78;99508.16;4955004;28;20047;-65
2021/07/04 01:38:45;;;;;;;16.90;8.25;;;;;;;17.92;74.87;99500.34;4954779;28;20039;-65
2021/07/04 01:41:11;;;;;;;9.40;7.63;;;;;;;17.92;74.73;99505.56;4954917;28;20047;-65
2021/07/04 01:43:39;;;;;;;9.60;7.85;;;;;;;17.91;74.98;99498.59;4954926;28;20043;-65
2021/07/04 01:46:05;;;;;;;14.85;7.85;;;;;;;17.94;74.82;99508.16;4954912;28;20043;-65
2021/07/04 01:48:30;;;;;;;9.13;8.15;;;;;;;17.93;74.89;99506.41;4953729;29;20027;-65
2021/07/04 01:50:56;;;;;;;10.25;7.43;;;;;;;17.94;74.92;99500.28;4954669;28;20039;-65
2021/07/04 01:53:21;;;;;;;12.18;8.60;;;;;;;17.93;75.26;99506.41;4954643;28;20066;-65
2021/07/04 01:55:47;;;;;;;10.27;8.52;;;;;;;17.93;74.96;99499.44;4954807;28;20051;-65
2021/07/04 01:58:13;;;;;;;11.35;8.80;;;;;;;17.92;75.04;99500.34;4954440;29;20042;-65
2021/07/04 02:00:40;;;;;;;11.57;8.50;;;;;;;17.92;74.98;99495.09;4937543;29;20487;-65
2021/07/04 02:03:11;;;;;;;10.65;7.78;;;;;;;17.92;75.05;99494.22;4937623;29;20118;-65
2021/07/04 02:05:38;;;;;;;10.23;8.57;;;;;;;17.92;75.00;99492.47;4956764;28;20050;-65
2021/07/04 02:08:05;;;;;;;10.02;8.13;;;;;;;17.91;74.84;99492.50;4940881;29;20127;-65
2021/07/04 02:10:33;;;;;;;12.73;8.25;;;;;;;17.91;75.17;99497.72;4958101;29;20097;-65
2021/07/04 02:13:00;;;;;;;9.52;7.82;;;;;;;17.92;75.10;99497.72;4941263;29;20031;-65
2021/07/04 02:15:33;;;;;;;10.73;7.78;;;;;;;17.90;75.04;99491.63;4940838;29;20031;-65
2021/07/04 02:18:05;;;;;;;15.07;8.65;;;;;;;17.89;75.01;99495.16;4956965;29;20036;-65
2021/07/04 02:20:33;;;;;;;14.63;8.70;;;;;;;17.90;74.94;99496.03;4956548;29;20093;-65
2021/07/04 02:23:00;;;;;;;14.52;8.88;;;;;;;17.89;75.04;99489.06;4940599;29;20526;-65
2021/07/04 02:25:26;;;;;;;13.05;9.00;;;;;;;17.88;75.13;99487.34;4940752;29;20039;-65
2021/07/04 02:27:52;;;;;;;10.25;7.75;;;;;;;17.87;74.92;99491.69;4957634;28;20550;-65
2021/07/04 02:30:18;;;;;;;11.52;8.77;;;;;;;17.87;74.88;99496.94;4957653;28;20043;-65
2021/07/04 02:32:46;;;;;;;10.73;8.88;;;;;;;17.87;75.26;99496.09;4956518;29;20038;-65
2021/07/04 02:35:12;;;;;;;11.73;9.10;;;;;;;17.87;75.39;99498.72;4940338;29;20117;-65
2021/07/04 02:37:38;;;;;;;14.77;9.57;;;;;;;17.86;75.07;99495.22;4957644;28;20498;-65
2021/07/04 02:40:05;;;;;;;18.10;9.40;;;;;;;17.86;75.18;99492.59;4957587;28;20039;-65
2021/07/04 02:42:31;;;;;;;14.15;8.88;;;;;;;17.85;75.34;99487.41;4957677;28;20039;-65
2021/07/04 02:44:58;;;;;;;12.75;8.35;;;;;;;17.84;75.16;99494.38;4956226;28;20127;-65
2021/07/04 02:47:25;;;;;;;17.65;8.70;;;;;;;17.83;74.78;99494.44;4956296;28;20035;-65
2021/07/04 02:49:53;;;;;;;18.13;9.52;;;;;;;17.81;75.27;99484.84;4957482;28;20117;-65
2021/07/04 02:52:22;;;;;;;14.05;10.20;;;;;;;17.82;75.51;99485.72;4955976;28;20035;-65
2021/07/04 02:54:47;;;;;;;14.90;9.00;;;;;;;17.82;75.39;99493.59;4956449;28;20490;-65
2021/07/04 02:57:13;;;;;;;11.90;8.82;;;;;;;17.81;75.46;99504.97;4957159;28;20041;-65
2021/07/04 02:59:41;;;;;;;13.80;8.98;;;;;;;17.81;75.16;99503.19;4955664;29;20047;-65
2021/07/04 03:02:06;;;;;;;11.40;9.25;;;;;;;17.81;75.43;99513.69;4939539;29;20059;-65
2021/07/04 03:04:32;;;;;;;15.55;10.00;;;;;;;17.81;75.53;99515.44;4956553;28;20517;-65
2021/07/04 03:07:00;;;;;;;12.27;9.32;;;;;;;17.80;75.17;99511.09;4956827;28;20086;-65
2021/07/04 03:09:25;;;;;;;14.88;9.82;;;;;;;17.79;75.71;99510.22;4939771;29;20063;-65
2021/07/04 03:11:51;;;;;;;11.55;9.38;;;;;;;17.78;75.29;99503.25;4956069;28;20066;-65
2021/07/04 03:14:17;;;;;;;15.18;9.60;;;;;;;17.78;75.47;99507.66;4956582;28;20042;-65
2021/07/04 03:16:44;;;;;;;16.42;9.55;;;;;;;17.77;75.35;99504.16;4956843;28;20554;-65
2021/07/04 03:19:10;;;;;;;16.20;9.05;;;;;;;17.77;75.43;99498.06;4939630;29;20062;-65
2021/07/04 03:21:36;;;;;;;14.35;9.43;;;;;;;17.78;75.41;99489.31;4956452;28;20074;-65
2021/07/04 03:24:01;;;;;;;11.85;9.18;;;;;;;17.78;75.52;99491.94;4955760;28;20035;-65
2021/07/04 03:26:27;;;;;;;12.57;9.35;;;;;;;17.77;75.49;99491.03;4955510;29;20050;-65
2021/07/04 03:28:52;;;;;;;17.70;8.85;;;;;;;17.78;75.48;99484.06;4955342;29;20042;-65
2021/07/04 03:31:20;;;;;;;12.38;8.85;;;;;;;17.78;75.47;99481.44;4956147;28;20077;-65
2021/07/04 03:33:46;;;;;;;11.35;8.25;;;;;;;17.77;75.46;99479.72;4939171;29;20036;-66
2021/07/04 03:36:11;;;;;;;16.20;8.98;;;;;;;17.77;75.29;99474.47;4955073;29;20047;-65
2021/07/04 03:38:37;;;;;;;10.45;8.80;;;;;;;17.76;75.51;99476.22;4956471;28;20031;-65
2021/07/04 03:41:02;;;;;;;13.98;9.07;;;;;;;17.76;75.53;99473.59;4955266;28;20082;-65
2021/07/04 03:43:28;;;;;;;11.52;8.55;;;;;;;17.76;75.58;99472.75;4956264;28;20035;-65
2021/07/04 03:45:53;;;;;;;12.15;8.90;;;;;;;17.76;75.50;99473.59;4955232;29;20042;-65
2021/07/04 03:48:19;;;;;;;18.30;9.30;;;;;;;17.75;75.38;99471.88;4956112;29;20031;-65
2021/07/04 03:50:45;;;;;;;15.18;8.70;;;;;;;17.75;75.70;99466.63;4956034;28;20035;-65
2021/07/04 03:53:11;;;;;;;14.70;9.55;;;;;;;17.75;75.58;99473.66;4939037;29;20096;-65
2021/07/04 03:55:36;;;;;;;12.25;9.27;;;;;;;17.76;75.79;99475.38;4956187;28;20495;-65
2021/07/04 03:58:04;;;;;;;15.60;8.80;;;;;;;17.76;75.56;99472.75;4954861;29;20122;-65
2021/07/04 04:00:33;;;;;;;18.80;8.82;;;;;;;17.75;75.69;99474.50;4939064;29;20035;-65
2021/07/04 04:03:00;;;;;;;11.50;9.05;;;;;;;17.75;75.56;99473.66;4938957;29;20101;-65
2021/07/04 04:05:26;;;;;;;16.13;9.05;;;;;;;17.74;75.73;99470.19;4955770;28;20035;-64
2021/07/04 04:07:51;;;;;;;13.90;8.73;;;;;;;17.74;75.60;99469.28;4956005;29;20534;-64
2021/07/04 04:10:17;;;;;;;12.20;8.40;;;;;;;17.75;75.50;99476.25;4955582;29;20474;-64
2021/07/04 04:12:45;;;;;;;11.63;9.05;;;;;;;17.74;75.64;99469.28;4954645;29;20043;-65
2021/07/04 04:15:12;;;;;;;14.30;9.27;;;;;;;17.74;75.58;99474.53;4954571;29;20035;-65
2021/07/04 04:17:37;;;;;;;12.63;9.80;;;;;;;17.74;75.73;99474.53;4955796;28;20488;-65
2021/07/04 04:20:04;;;;;;;13.00;8.88;;;;;;;17.74;75.77;99478.03;4954660;29;20126;-65
2021/07/04 04:22:30;;;;;;;12.02;8.90;;;;;;;17.75;75.71;99484.97;4955952;28;20031;-65
2021/07/04 04:24:58;;;;;;;13.93;9.23;;;;;;;17.75;75.74;99489.38;4954528;29;20038;-65
2021/07/04 04:27:23;;;;;;;10.85;8.98;;;;;;;17.74;75.36;99487.63;4955379;28;20065;-65
2021/07/04 04:29:49;;;;;;;15.82;8.80;;;;;;;17.75;75.65;99497.22;4955758;29;20066;-65
2021/07/04 04:32:15;;;;;;;14.07;9.88;;;;;;;17.74;75.60;99499.00;4955209;29;20384;-65
2021/07/04 04:34:41;;;;;;;13.25;8.32;;;;;;;17.73;75.65;99501.63;4938388;29;20043;-65
2021/07/04 04:37:07;;;;;;;13.65;8.77;;;;;;;17.73;75.68;99499.00;4955262;28;20039;-65
2021/07/04 04:39:33;;;;;;;16.52;10.27;;;;;;;17.72;75.83;99489.44;4955589;28;20395;-65
2021/07/04 04:42:00;;;;;;;12.77;8.98;;;;;;;17.71;75.48;99499.06;4938144;29;20031;-65
2021/07/04 04:44:25;;;;;;;15.18;9.90;;;;;;;17.71;75.56;99500.81;4955495;28;20046;-65
2021/07/04 04:46:51;;;;;;;16.80;10.25;;;;;;;17.70;75.64;99496.47;4955332;29;20039;-65
2021/07/04 04:49:16;;;;;;;15.18;10.15;;;;;;;17.69;75.72;99494.72;4954001;28;20120;-65
2021/07/04 04:51:44;;;;;;;11.70;9.68;;;;;;;17.69;75.79;99495.59;4954518;29;20045;-65
2021/07/04 04:54:15;;;;;;;11.70;10.00;;;;;;;17.68;75.72;99493.88;4955665;28;20094;-65
2021/07/04 04:56:40;;;;;;;12.77;10.30;;;;;;;17.69;75.84;99494.72;4955397;28;20031;-65
2021/07/04 04:59:07;;;;;;;12.77;10.40;;;;;;;17.68;75.86;99495.63;4954200;28;20090;-65
2021/07/04 05:01:33;;;;;;;17.17;10.30;;;;;;;17.68;75.78;99495.63;4954910;28;20055;-66
2021/07/04 05:04:03;;;;;;;12.60;10.07;;;;;;;17.68;75.83;99493.00;4955154;28;20037;-65
2021/07/04 05:06:28;;;;;;;14.93;11.60;;;;;;;17.68;75.77;99495.63;4938676;29;20114;-65
2021/07/04 05:08:56;;;;;;;13.48;10.45;;;;;;;17.68;75.77;99485.16;4955245;28;20487;-65
2021/07/04 05:11:22;;;;;;;14.40;11.02;;;;;;;17.70;75.94;99493.84;4955622;28;20039;-65
2021/07/04 05:13:47;;;;;;;24.75;12.25;;;;;;;17.70;75.85;99499.06;4955316;28;20035;-65
2021/07/04 05:16:13;;;;;;;13.70;10.27;;;;;;;17.71;75.75;99492.94;4955148;28;20043;-65
2021/07/04 05:18:39;;;;;;;16.02;11.13;;;;;;;17.71;75.87;99496.44;4955617;28;20499;-65
2021/07/04 05:21:05;;;;;;;15.27;11.63;;;;;;;17.73;76.00;99496.41;4955358;28;20043;-65
2021/07/04 05:23:33;;;;;;;17.77;11.30;;;;;;;17.72;75.68;99494.66;4955069;28;20059;-65
2021/07/04 05:26:01;;;;;;;14.85;10.90;;;;;;;17.72;75.91;99490.31;4955080;28;20066;-65
2021/07/04 05:28:28;;;;;;;13.27;11.15;;;;;;;17.73;75.92;99491.16;4953619;28;20090;-65
2021/07/04 05:30:55;;;;;;;17.38;11.02;;;;;;;17.72;75.87;99482.44;4955001;28;20046;-65
2021/07/04 05:33:23;;;;;;;19.55;11.15;;;;;;;17.73;75.94;99476.31;4953609;28;20031;-65
2021/07/04 05:35:52;;;;;;;16.25;11.00;;;;;;;17.73;75.86;99475.44;4938374;29;20031;-65
2021/07/04 05:38:22;;;;;;;12.98;10.10;;;;;;;17.72;75.90;99471.09;4955274;28;20129;-65
2021/07/04 05:40:51;;;;;;;14.52;10.63;;;;;;;17.72;75.75;99465.84;4955863;28;20050;-65
2021/07/04 05:43:21;;;;;;;12.52;10.40;;;;;;;17.72;75.65;99461.47;4957509;28;20043;-65
2021/07/04 05:45:50;;;;;;;15.65;11.35;;;;;;;17.74;75.89;99453.56;4941166;29;20039;-65
2021/07/04 05:48:15;;;;;;;20.08;12.00;;;;;;;17.74;76.03;99456.19;4958679;28;20398;-65
2021/07/04 05:50:44;;;;;;;19.05;12.77;;;;;;;17.76;76.01;99451.78;4958385;28;20039;-65
2021/07/04 05:53:09;;;;;;;16.85;11.93;;;;;;;17.77;75.90;99443.88;4958002;28;20518;-65
2021/07/04 05:55:35;;;;;;;12.80;11.27;;;;;;;17.78;75.81;99447.38;4958262;28;20047;-65
2021/07/04 05:58:03;;;;;;;17.10;11.90;;;;;;;17.78;75.98;99447.38;4958172;28;20039;-65
2021/07/04 06:00:31;;;;;;;17.20;12.75;;;;;;;17.77;75.87;99448.28;4958319;28;20122;-65
2021/07/04 06:03:00;;;;;;;14.63;12.52;;;;;;;17.78;76.09;99444.75;4958416;28;20047;-65
2021/07/04 06:05:26;;;;;;;17.63;13.85;;;;;;;17.79;76.01;99446.47;4958256;28;20039;-65
2021/07/04 06:07:53;;;;;;;15.35;11.73;;;;;;;17.78;75.96;99440.34;4956981;29;20038;-65
2021/07/04 06:10:19;;;;;;;18.63;12.30;;;;;;;17.78;76.06;99437.75;4958035;28;20118;-65
2021/07/04 06:12:47;;;;;;;15.43;11.35;;;;;;;17.78;76.07;99431.66;4957545;28;20518;-65
2021/07/04 06:15:13;;;;;;;16.02;13.25;;;;;;;17.78;76.13;99427.25;4958252;28;20043;-65
2021/07/04 06:17:39;;;;;;;15.23;12.27;;;;;;;17.79;76.12;99425.50;4957819;28;20117;-65
2021/07/04 06:20:07;;;;;;;16.88;12.98;;;;;;;17.79;76.03;99418.50;4956857;29;20050;-65
2021/07/04 06:22:34;;;;;;;15.23;12.45;;;;;;;17.79;75.91;99415.03;4957850;28;20390;-65
2021/07/04 06:25:09;;;;;;;16.52;12.95;;;;;;;17.80;76.11;99416.75;4957987;28;20075;-65
2021/07/04 06:27:34;;;;;;;16.40;13.00;;;;;;;17.81;76.17;99408.00;4941092;29;20039;-65
2021/07/04 06:30:03;;;;;;;14.52;11.18;;;;;;;17.81;76.36;99403.59;4956493;28;20039;-65
2021/07/04 06:32:28;;;;;;;16.33;12.48;;;;;;;17.83;76.01;99400.94;4957668;28;20035;-65
2021/07/04 06:34:54;;;;;;;12.38;10.27;;;;;;;17.84;76.09;99405.28;4956679;28;20039;-65
2021/07/04 06:37:22;;;;;;;14.00;11.73;;;;;;;17.85;75.97;99403.53;4957205;28;20407;-65
2021/07/04 06:39:50;;;;;;;15.80;12.32;;;;;;;17.85;76.19;99401.75;4957412;28;20046;-65
2021/07/04 06:42:18;;;;;;;17.23;13.43;;;;;;;17.84;76.09;99400.03;4946371;28;20509;-64
2021/07/04 06:44:45;;;;;;;17.10;12.10;;;;;;;17.87;76.04;99401.75;4975603;28;20043;-65
2021/07/04 06:47:10;;;;;;;15.43;13.32;;;;;;;17.87;76.24;99397.34;4959439;28;20042;-65
2021/07/04 06:49:36;;;;;;;18.23;13.75;;;;;;;17.88;76.01;99406.09;4976819;28;20097;-65
2021/07/04 06:52:02;;;;;;;18.42;13.80;;;;;;;17.88;76.43;99406.09;4976146;28;20038;-65
2021/07/04 06:54:32;;;;;;;17.95;14.20;;;;;;;17.89;76.29;99406.03;4959057;28;20050;-65
2021/07/04 06:57:26;;;;;;;20.25;14.00;;;;;;;17.89;75.98;99399.94;4959772;28;20084;-65
2021/07/04 06:59:47;;;;;;;18.67;15.23;;;;;;;17.90;76.11;99399.06;4976611;28;20031;-64
2021/07/04 07:02:22;;;;;;;20.42;14.82;;;;;;;17.90;76.18;99399.91;4958707;28;20106;-65
2021/07/04 07:04:52;;;;;;;20.88;15.20;;;;;;;17.90;76.02;99397.28;4959465;28;20043;-64
2021/07/04 07:07:19;;;;;;;16.80;14.65;;;;;;;17.91;76.13;99396.38;4975305;28;20047;-64
2021/07/04 07:09:50;;;;;;;22.13;15.60;;;;;;;17.91;76.19;99395.50;4976718;28;20030;-65
2021/07/04 07:12:16;;;;;;;17.90;14.80;;;;;;;17.91;76.17;99396.38;4958950;28;20171;-65
2021/07/04 07:14:43;;;;;;;19.20;15.38;;;;;;;17.93;76.23;99405.06;4976015;28;20070;-65
2021/07/04 07:17:11;;;;;;;16.20;14.13;;;;;;;17.93;76.22;99398.94;4975173;28;20062;-65
2021/07/04 07:19:39;;;;;;;17.88;14.80;;;;;;;17.93;76.14;99391.97;4974894;28;20033;-64
2021/07/04 07:22:06;;;;;;;16.45;14.63;;;;;;;17.93;76.11;99393.72;4974393;28;20039;-65
2021/07/04 07:24:34;;;;;;;18.50;13.90;;;;;;;17.93;75.79;99391.97;4975692;28;20456;-65
2021/07/04 07:26:59;;;;;;;19.20;15.10;;;;;;;17.94;76.07;99395.44;4976108;28;20122;-65
2021/07/04 07:29:35;;;;;;;20.92;15.82;;;;;;;17.96;75.69;99396.25;4976075;28;20074;-65
2021/07/04 07:32:01;;;;;;;17.55;15.23;;;;;;;17.96;76.22;99388.41;4958330;28;20041;-65
2021/07/04 07:34:26;;;;;;;16.83;14.13;;;;;;;17.96;76.05;99389.28;4974334;28;20039;-65
2021/07/04 07:36:59;;;;;;;17.50;13.98;;;;;;;17.96;75.97;99384.03;4975617;28;20379;-64
2021/07/04 07:39:24;;;;;;;19.23;15.93;;;;;;;17.97;76.08;99377.00;4974812;28;20039;-65
2021/07/04 07:41:50;;;;;;;19.00;15.63;;;;;;;17.99;76.11;99375.25;4958209;28;20498;-65
2021/07/04 07:44:17;;;;;;;18.17;14.25;;;;;;;18.00;76.13;99370.84;4975628;28;20501;-64
2021/07/04 07:46:44;;;;;;;16.00;12.75;;;;;;;18.03;76.07;99373.41;4974371;28;20042;-64
2021/07/04 07:49:11;;;;;;;17.30;14.25;;;;;;;18.04;76.23;99365.53;4976093;28;20057;-65
2021/07/04 07:51:37;;;;;;;17.17;13.98;;;;;;;18.07;76.13;99373.28;4974558;28;20046;-64
2021/07/04 07:54:04;;;;;;;18.38;14.73;;;;;;;18.10;76.22;99372.38;4974276;28;20031;-64
2021/07/04 07:56:30;;;;;;;18.58;13.23;;;;;;;18.10;76.18;99375.81;4975317;28;20039;-64
2021/07/04 07:58:59;;;;;;;17.90;13.65;;;;;;;18.12;76.17;99375.81;4957982;28;20458;-65
2021/07/04 08:01:25;;;;;;;17.05;12.60;;;;;;;18.12;75.98;99378.44;4974582;28;20039;-64
2021/07/04 08:03:50;;;;;;;15.57;12.77;;;;;;;18.11;75.95;99374.09;4973537;28;20038;-64
2021/07/04 08:06:16;;;;;;;17.65;12.65;;;;;;;18.12;76.00;99375.81;4975230;28;20045;-63
2021/07/04 08:08:41;;;;;;;15.40;12.10;;;;;;;18.13;76.15;99377.53;4975037;28;20118;-63
2021/07/04 08:11:07;;;;;;;14.95;12.02;;;;;;;18.11;75.98;99374.94;4975106;28;20045;-63
2021/07/04 08:13:33;;;;;;;14.10;10.90;;;;;;;18.12;76.02;99375.81;4973836;28;20035;-63
2021/07/04 08:15:58;;;;;;;16.52;11.73;;;;;;;18.14;75.82;99373.97;4974838;28;20490;-65
2021/07/04 08:18:26;;;;;;;12.90;9.73;;;;;;;18.14;76.04;99367.88;4974795;28;20046;-64
2021/07/04 08:20:52;;;;;;;13.90;9.75;;;;;;;18.15;75.99;99367.84;4957740;28;20130;-64
2021/07/04 08:23:21;;;;;;;13.52;10.73;;;;;;;18.16;75.79;99364.31;4975219;28;20046;-65
2021/07/04 08:25:48;;;;;;;13.10;11.05;;;;;;;18.18;75.80;99365.13;4974933;28;20034;-62
2021/07/04 08:28:17;;;;;;;12.85;9.27;;;;;;;18.19;75.95;99352.91;4973860;28;20402;-64
2021/07/04 08:30:44;;;;;;;11.98;9.68;;;;;;;18.20;75.88;99354.63;4974926;28;20041;-63
2021/07/04 08:33:11;;;;;;;13.82;9.85;;;;;;;18.20;76.08;99347.63;4958183;28;20046;-65
2021/07/04 08:35:37;;;;;;;11.80;10.18;;;;;;;18.21;75.88;99338.00;4956694;28;20177;-65
2021/07/04 08:38:04;;;;;;;11.75;10.35;;;;;;;18.21;75.91;99343.25;4972842;28;20121;-65
2021/07/04 08:40:31;;;;;;;11.73;10.23;;;;;;;18.22;75.94;99343.19;4956996;28;20038;-65
2021/07/04 08:42:59;;;;;;;12.63;10.98;;;;;;;18.24;76.00;99351.88;4973114;28;20548;-64
2021/07/04 08:45:25;;;;;;;14.90;10.63;;;;;;;18.25;76.02;99352.72;4956969;28;20062;-64
2021/07/04 08:47:52;;;;;;;11.68;9.98;;;;;;;18.25;75.87;99356.22;4973425;28;20458;-64
2021/07/04 08:50:17;;;;;;;11.52;9.93;;;;;;;18.28;76.18;99357.06;4975051;28;20065;-64
2021/07/04 08:52:45;;;;;;;12.98;10.45;;;;;;;18.26;76.00;99350.09;4974619;28;20488;-64
2021/07/04 08:55:11;;;;;;;13.43;9.98;;;;;;;18.28;76.08;99357.91;4974717;28;20070;-64
2021/07/04 08:57:37;;;;;;;11.88;10.57;;;;;;;18.26;75.98;99357.94;4974760;28;20062;-64
2021/07/04 09:00:06;;;;;;;12.80;10.27;;;;;;;18.26;76.01;99349.19;4973131;28;20039;-64
2021/07/04 09:02:37;;;;;;;13.30;10.32;;;;;;;18.25;75.99;99353.59;4973530;28;20134;-64
2021/07/04 09:05:12;;;;;;;13.25;11.43;;;;;;;18.23;75.96;99346.66;4957175;28;20081;-64
2021/07/04 09:07:40;;;;;;;14.50;10.82;;;;;;;18.22;76.02;99345.81;4974663;28;20122;-64
2021/07/04 09:10:13;;;;;;;11.70;9.88;;;;;;;18.22;75.86;99342.31;4957176;28;20532;-64
2021/07/04 09:12:45;;;;;;;12.63;11.32;;;;;;;18.21;75.99;99338.00;4973178;28;20554;-64
2021/07/04 09:15:13;;;;;;;16.25;12.00;;;;;;;18.20;76.13;99331.03;4960467;28;20070;-64
2021/07/04 09:17:40;;;;;;;13.13;10.95;;;;;;;18.20;76.05;99323.16;4960953;28;20538;-64
2021/07/04 09:20:11;;;;;;;13.63;11.95;;;;;;;18.21;75.97;99338.84;4960962;28;20058;-64
2021/07/04 09:22:39;;;;;;;13.85;12.35;;;;;;;18.22;76.08;99321.34;4977233;28;20486;-64
2021/07/04 09:25:11;;;;;;;12.85;11.18;;;;;;;18.22;75.96;99308.22;4978225;28;20042;-65
2021/07/04 09:27:58;;;;;;;13.18;11.38;;;;;;;18.24;75.91;99311.66;4976997;28;20042;-65
2021/07/04 09:30:33;;;;;;;13.48;11.05;;;;;;;18.24;75.82;99307.31;4978520;28;20106;-65
2021/07/04 09:33:12;;;;;;;14.05;12.45;;;;;;;18.24;76.03;99315.16;4978120;28;20038;-65
2021/07/04 09:35:51;;;;;;;12.18;9.93;;;;;;;18.25;76.17;99306.41;4976945;28;20062;-65
2021/07/04 09:38:17;;;;;;;12.73;9.77;;;;;;;18.25;76.03;99308.16;4961002;28;20038;-66
2021/07/04 09:40:44;;;;;;;10.20;8.93;;;;;;;18.24;76.07;99307.31;4960663;28;20037;-66
2021/07/04 09:43:15;;;;;;;10.93;9.45;;;;;;;18.24;76.33;99304.69;4976759;28;20134;-65
2021/07/04 09:45:52;;;;;;;9.85;8.25;;;;;;;18.22;76.22;99288.13;4976815;28;20027;-65
2021/07/04 09:48:45;;;;;;;11.38;8.20;;;;;;;18.22;75.84;99301.22;4960461;28;20085;-65
2021/07/04 09:51:25;;;;;;;9.73;8.73;;;;;;;18.22;76.00;99296.00;4969943;28;20130;-65
2021/07/04 09:53:53;;;;;;;10.93;7.80;;;;;;;18.22;76.08;99288.13;4960481;28;20086;-65
2021/07/04 09:56:25;;;;;;;10.20;8.45;;;;;;;18.22;76.35;99282.88;4960458;28;20045;-66
2021/07/04 09:58:56;;;;;;;9.93;8.07;;;;;;;18.22;76.08;99288.13;4978223;28;20045;-65
2021/07/04 10:01:38;;;;;;;9.40;8.50;;;;;;;18.22;76.12;99277.63;4977844;28;20027;-65
2021/07/04 10:04:22;;;;;;;9.60;8.25;;;;;;;18.23;76.30;99284.59;4960473;28;20070;-65
2021/07/04 10:06:50;;;;;;;7.63;6.70;;;;;;;18.22;76.27;99261.91;4977514;28;20042;-66
2021/07/04 10:09:21;;;;;;;9.23;7.75;;;;;;;18.23;76.25;99260.13;4976353;28;20545;-65
2021/07/04 10:11:48;;;;;;;8.43;7.57;;;;;;;18.23;76.25;99252.25;4977701;28;20043;-66
2021/07/04 10:14:14;;;;;;;8.95;7.55;;;;;;;18.24;76.21;99257.47;4960146;28;20031;-66
2021/07/04 10:16:45;;;;;;;8.23;7.10;;;;;;;18.24;76.04;99254.84;4977422;28;20041;-66
2021/07/04 10:19:16;;;;;;;8.73;6.68;;;;;;;18.25;76.25;99260.94;4976242;28;20034;-66
2021/07/04 10:21:43;;;;;;;8.18;6.40;;;;;;;18.25;76.32;99253.94;4959668;28;20034;-66
2021/07/04 10:24:13;;;;;;;8.00;7.20;;;;;;;18.25;76.03;99256.56;4977702;28;20372;-65
2021/07/04 10:26:42;;;;;;;6.60;5.90;;;;;;;18.25;76.27;99256.56;4976600;28;20043;-66
2021/07/04 10:29:08;;;;;;;6.35;5.53;;;;;;;18.26;76.17;99252.16;4977034;28;20042;-66
2021/07/04 10:31:34;;;;;;;7.28;6.57;;;;;;;18.26;76.32;99252.16;4976213;28;20046;-66
2021/07/04 10:34:14;;;;;;;7.60;6.55;;;;;;;18.25;76.20;99246.09;4959453;28;20507;-65
2021/07/04 10:36:59;;;;;;;7.55;6.25;;;;;;;18.24;76.20;99246.97;4960040;28;20042;-65
2021/07/04 10:39:29;;;;;;;6.72;6.13;;;;;;;18.26;76.26;99257.41;4959928;28;20130;-66
2021/07/04 10:41:54;;;;;;;6.65;5.97;;;;;;;18.27;76.14;99256.50;4959325;28;20410;-65
2021/07/04 10:44:37;;;;;;;8.73;5.80;;;;;;;18.27;76.10;99256.50;4976486;28;20035;-65
2021/07/04 10:47:05;;;;;;;7.10;6.40;;;;;;;18.27;76.12;99259.13;4976936;28;20062;-65
2021/07/04 10:49:41;;;;;;;7.63;6.25;;;;;;;18.26;76.14;99258.28;4959358;28;20050;-65
2021/07/04 10:52:22;;;;;;;6.93;6.22;;;;;;;18.27;76.05;99248.66;4975746;28;20031;-66
2021/07/04 10:54:54;;;;;;;7.25;6.00;;;;;;;18.26;76.27;99249.53;4960015;28;20117;-66
2021/07/04 10:57:27;;;;;;;7.82;5.90;;;;;;;18.26;76.24;99255.66;4976398;28;20030;-66
2021/07/04 11:00:04;;;;;;;7.60;5.70;;;;;;;18.26;76.37;99254.78;4975753;28;20453;-66
2021/07/04 11:02:54;;;;;;;5.93;5.28;;;;;;;18.26;76.18;99257.41;4976244;28;20072;-66
2021/07/04 11:05:40;;;;;;;6.43;5.63;;;;;;;18.25;76.25;99253.06;4976576;28;20487;-66
2021/07/04 11:08:30;;;;;;;6.90;6.28;;;;;;;18.23;75.93;99257.50;4959510;28;20046;-66
2021/07/04 11:11:02;;;;;;;6.13;5.13;;;;;;;18.22;76.45;99308.22;4975401;28;20047;-65
2021/07/04 11:13:44;;;;;;;7.32;6.55;;;;;;;18.21;76.27;99386.06;4976411;28;20086;-64
2021/07/04 11:16:24;;;;;;;6.13;4.47;;;;;;;18.16;76.14;99402.81;4975115;28;20049;-66
2021/07/04 11:19:13;;;;;;;4.32;3.20;;;;;;;18.08;76.04;99400.38;4975778;28;20038;-66
2021/07/04 11:21:56;;;;;;;5.88;3.30;;;;;;;17.99;76.01;99400.59;4974988;28;20034;-65
2021/07/04 11:24:29;;;;;;;6.15;2.05;;;;;;;17.93;75.93;99393.72;4958745;28;20495;-67
2021/07/04 11:27:20;;;;;;;3.53;1.88;;;;;;;17.84;75.95;99389.56;4959177;28;20410;-66
2021/07/04 11:30:17;;;;;;;4.68;2.10;;;;;;;17.79;75.83;99391.44;4974706;28;20042;-65